sensor_id;sensor_type;location;lat;lon;timestamp;P1;durP1;ratioP1;P2;durP2;ratioP2
66523;SDS011;53350;52.210;5.160;2023-04-25T00:01:03;24.25;;;4.20;;
66523;SDS011;53350;52.210;5.160;2023-04-25T00:03:30;16.48;;;3.50;;
66523;SDS011;53350;52.210;5.160;2023-04-25T00:05:57;21.25;;;3.58;;
66523;SDS011;53350;52.210;5.160;2023-04-25T00:08:26;22.20;;;3.38;;
66523;SDS011;53350;52.210;5.160;2023-04-25T00:10:53;16.88;;;3.53;;
66523;SDS011;53350;52.210;5.160;2023-04-25T00:13:20;21.33;;;5.40;;
66523;SDS011;53350;52.210;5.160;2023-04-25T00:15:48;21.17;;;4.18;;
66523;SDS011;53350;52.210;5.160;2023-04-25T00:18:15;18.27;;;3.45;;
66523;SDS011;53350;52.210;5.160;2023-04-25T00:20:42;19.13;;;3.30;;
66523;SDS011;53350;52.210;5.160;2023-04-25T00:23:11;19.42;;;3.50;;
66523;SDS011;53350;52.210;5.160;2023-04-25T00:25:42;17.20;;;3.15;;
66523;SDS011;53350;52.210;5.160;2023-04-25T00:28:08;22.10;;;3.65;;
66523;SDS011;53350;52.210;5.160;2023-04-25T00:30:35;15.27;;;3.22;;
66523;SDS011;53350;52.210;5.160;2023-04-25T00:33:03;16.13;;;3.40;;
66523;SDS011;53350;52.210;5.160;2023-04-25T00:35:29;17.42;;;3.70;;
66523;SDS011;53350;52.210;5.160;2023-04-25T00:37:56;17.48;;;3.63;;
66523;SDS011;53350;52.210;5.160;2023-04-25T00:40:22;20.25;;;3.85;;
66523;SDS011;53350;52.210;5.160;2023-04-25T00:42:49;16.80;;;3.40;;
66523;SDS011;53350;52.210;5.160;2023-04-25T00:45:18;16.58;;;3.17;;
66523;SDS011;53350;52.210;5.160;2023-04-25T00:47:45;15.30;;;3.53;;
66523;SDS011;53350;52.210;5.160;2023-04-25T00:50:13;18.50;;;2.92;;
66523;SDS011;53350;52.210;5.160;2023-04-25T00:52:43;18.90;;;3.35;;
66523;SDS011;53350;52.210;5.160;2023-04-25T00:55:10;21.55;;;3.47;;
66523;SDS011;53350;52.210;5.160;2023-04-25T00:57:38;12.95;;;2.97;;
66523;SDS011;53350;52.210;5.160;2023-04-25T01:00:05;14.05;;;3.42;;
66523;SDS011;53350;52.210;5.160;2023-04-25T01:02:34;18.25;;;3.13;;
66523;SDS011;53350;52.210;5.160;2023-04-25T01:05:01;20.67;;;3.30;;
66523;SDS011;53350;52.210;5.160;2023-04-25T01:07:30;16.45;;;3.50;;
66523;SDS011;53350;52.210;5.160;2023-04-25T01:09:56;19.58;;;3.28;;
66523;SDS011;53350;52.210;5.160;2023-04-25T01:12:23;21.30;;;3.25;;
66523;SDS011;53350;52.210;5.160;2023-04-25T01:14:50;15.80;;;3.28;;
66523;SDS011;53350;52.210;5.160;2023-04-25T01:17:17;14.40;;;2.83;;
66523;SDS011;53350;52.210;5.160;2023-04-25T01:19:43;18.83;;;3.03;;
66523;SDS011;53350;52.210;5.160;2023-04-25T01:22:12;15.32;;;3.22;;
66523;SDS011;53350;52.210;5.160;2023-04-25T01:24:39;15.95;;;2.70;;
66523;SDS011;53350;52.210;5.160;2023-04-25T01:27:05;12.63;;;3.50;;
66523;SDS011;53350;52.210;5.160;2023-04-25T01:29:33;15.70;;;3.70;;
66523;SDS011;53350;52.210;5.160;2023-04-25T01:32:02;20.45;;;3.45;;
66523;SDS011;53350;52.210;5.160;2023-04-25T01:34:30;15.88;;;3.30;;
66523;SDS011;53350;52.210;5.160;2023-04-25T01:36:57;16.92;;;3.25;;
66523;SDS011;53350;52.210;5.160;2023-04-25T01:39:27;14.32;;;2.85;;
66523;SDS011;53350;52.210;5.160;2023-04-25T01:41:54;18.00;;;3.03;;
66523;SDS011;53350;52.210;5.160;2023-04-25T01:44:20;14.60;;;2.95;;
66523;SDS011;53350;52.210;5.160;2023-04-25T01:46:47;12.35;;;3.15;;
66523;SDS011;53350;52.210;5.160;2023-04-25T01:49:13;12.23;;;2.83;;
66523;SDS011;53350;52.210;5.160;2023-04-25T01:51:40;16.98;;;3.08;;
66523;SDS011;53350;52.210;5.160;2023-04-25T01:54:06;14.73;;;2.63;;
66523;SDS011;53350;52.210;5.160;2023-04-25T01:56:36;11.93;;;2.78;;
66523;SDS011;53350;52.210;5.160;2023-04-25T01:59:03;18.60;;;3.13;;
66523;SDS011;53350;52.210;5.160;2023-04-25T02:01:30;17.40;;;3.35;;
66523;SDS011;53350;52.210;5.160;2023-04-25T02:03:57;13.63;;;3.15;;
66523;SDS011;53350;52.210;5.160;2023-04-25T02:06:23;14.60;;;3.13;;
66523;SDS011;53350;52.210;5.160;2023-04-25T02:08:50;12.68;;;2.95;;
66523;SDS011;53350;52.210;5.160;2023-04-25T02:11:16;11.85;;;2.92;;
66523;SDS011;53350;52.210;5.160;2023-04-25T02:13:44;13.13;;;3.83;;
66523;SDS011;53350;52.210;5.160;2023-04-25T02:16:10;14.77;;;4.07;;
66523;SDS011;53350;52.210;5.160;2023-04-25T02:18:38;12.10;;;3.08;;
66523;SDS011;53350;52.210;5.160;2023-04-25T02:21:04;16.27;;;3.00;;
66523;SDS011;53350;52.210;5.160;2023-04-25T02:23:31;12.25;;;2.90;;
66523;SDS011;53350;52.210;5.160;2023-04-25T02:25:57;13.68;;;3.10;;
66523;SDS011;53350;52.210;5.160;2023-04-25T02:28:24;13.93;;;3.30;;
66523;SDS011;53350;52.210;5.160;2023-04-25T02:30:52;15.18;;;2.97;;
66523;SDS011;53350;52.210;5.160;2023-04-25T02:33:19;17.27;;;3.33;;
66523;SDS011;53350;52.210;5.160;2023-04-25T02:35:46;11.65;;;3.00;;
66523;SDS011;53350;52.210;5.160;2023-04-25T02:38:12;11.95;;;3.45;;
66523;SDS011;53350;52.210;5.160;2023-04-25T02:40:38;11.77;;;3.53;;
66523;SDS011;53350;52.210;5.160;2023-04-25T02:43:05;12.00;;;3.13;;
66523;SDS011;53350;52.210;5.160;2023-04-25T02:45:32;10.98;;;3.65;;
66523;SDS011;53350;52.210;5.160;2023-04-25T02:47:59;16.65;;;3.05;;
66523;SDS011;53350;52.210;5.160;2023-04-25T02:50:26;16.83;;;3.15;;
66523;SDS011;53350;52.210;5.160;2023-04-25T02:52:52;15.85;;;3.47;;
66523;SDS011;53350;52.210;5.160;2023-04-25T02:55:19;9.15;;;2.75;;
66523;SDS011;53350;52.210;5.160;2023-04-25T02:57:47;11.30;;;3.00;;
66523;SDS011;53350;52.210;5.160;2023-04-25T03:00:13;9.85;;;2.45;;
66523;SDS011;53350;52.210;5.160;2023-04-25T03:02:40;12.52;;;3.05;;
66523;SDS011;53350;52.210;5.160;2023-04-25T03:05:08;13.25;;;3.10;;
66523;SDS011;53350;52.210;5.160;2023-04-25T03:07:34;13.57;;;3.22;;
66523;SDS011;53350;52.210;5.160;2023-04-25T03:10:01;14.40;;;2.70;;
66523;SDS011;53350;52.210;5.160;2023-04-25T03:12:27;15.32;;;3.05;;
66523;SDS011;53350;52.210;5.160;2023-04-25T03:14:54;11.80;;;2.40;;
66523;SDS011;53350;52.210;5.160;2023-04-25T03:17:20;18.27;;;2.97;;
66523;SDS011;53350;52.210;5.160;2023-04-25T03:19:47;16.38;;;2.42;;
66523;SDS011;53350;52.210;5.160;2023-04-25T03:22:15;14.15;;;2.25;;
66523;SDS011;53350;52.210;5.160;2023-04-25T03:24:41;14.93;;;2.58;;
66523;SDS011;53350;52.210;5.160;2023-04-25T03:27:08;16.38;;;2.75;;
66523;SDS011;53350;52.210;5.160;2023-04-25T03:29:35;13.88;;;2.30;;
66523;SDS011;53350;52.210;5.160;2023-04-25T03:32:01;15.25;;;2.72;;
66523;SDS011;53350;52.210;5.160;2023-04-25T03:34:27;13.65;;;2.50;;
66523;SDS011;53350;52.210;5.160;2023-04-25T03:36:54;9.90;;;1.60;;
66523;SDS011;53350;52.210;5.160;2023-04-25T03:39:22;9.38;;;1.90;;
66523;SDS011;53350;52.210;5.160;2023-04-25T03:41:49;14.48;;;2.63;;
66523;SDS011;53350;52.210;5.160;2023-04-25T03:44:15;12.85;;;2.38;;
66523;SDS011;53350;52.210;5.160;2023-04-25T03:46:42;11.65;;;1.85;;
66523;SDS011;53350;52.210;5.160;2023-04-25T03:49:08;10.63;;;2.03;;
66523;SDS011;53350;52.210;5.160;2023-04-25T03:51:34;12.82;;;2.85;;
66523;SDS011;53350;52.210;5.160;2023-04-25T03:54:01;10.55;;;1.95;;
66523;SDS011;53350;52.210;5.160;2023-04-25T03:56:29;11.02;;;2.30;;
66523;SDS011;53350;52.210;5.160;2023-04-25T03:58:56;8.75;;;1.63;;
66523;SDS011;53350;52.210;5.160;2023-04-25T04:01:22;13.85;;;1.85;;
66523;SDS011;53350;52.210;5.160;2023-04-25T04:03:48;8.52;;;1.75;;
66523;SDS011;53350;52.210;5.160;2023-04-25T04:06:15;12.05;;;1.98;;
66523;SDS011;53350;52.210;5.160;2023-04-25T04:08:42;11.00;;;1.80;;
66523;SDS011;53350;52.210;5.160;2023-04-25T04:11:09;17.15;;;2.17;;
66523;SDS011;53350;52.210;5.160;2023-04-25T04:13:37;9.55;;;1.73;;
66523;SDS011;53350;52.210;5.160;2023-04-25T04:16:03;11.93;;;1.77;;
66523;SDS011;53350;52.210;5.160;2023-04-25T04:18:30;10.95;;;1.95;;
66523;SDS011;53350;52.210;5.160;2023-04-25T04:20:58;19.25;;;2.15;;
66523;SDS011;53350;52.210;5.160;2023-04-25T04:23:24;12.57;;;1.98;;
66523;SDS011;53350;52.210;5.160;2023-04-25T04:25:52;12.73;;;1.92;;
66523;SDS011;53350;52.210;5.160;2023-04-25T04:28:19;9.43;;;1.80;;
66523;SDS011;53350;52.210;5.160;2023-04-25T04:30:46;13.48;;;2.17;;
66523;SDS011;53350;52.210;5.160;2023-04-25T04:33:16;11.70;;;1.95;;
66523;SDS011;53350;52.210;5.160;2023-04-25T04:35:44;11.77;;;2.08;;
66523;SDS011;53350;52.210;5.160;2023-04-25T04:38:11;12.05;;;2.10;;
66523;SDS011;53350;52.210;5.160;2023-04-25T04:43:06;9.27;;;1.75;;
66523;SDS011;53350;52.210;5.160;2023-04-25T04:45:35;9.95;;;1.90;;
66523;SDS011;53350;52.210;5.160;2023-04-25T04:48:04;9.50;;;1.70;;
66523;SDS011;53350;52.210;5.160;2023-04-25T04:50:31;10.35;;;1.75;;
66523;SDS011;53350;52.210;5.160;2023-04-25T04:52:58;10.73;;;1.98;;
66523;SDS011;53350;52.210;5.160;2023-04-25T04:55:25;9.98;;;1.70;;
66523;SDS011;53350;52.210;5.160;2023-04-25T04:57:51;14.30;;;1.80;;
66523;SDS011;53350;52.210;5.160;2023-04-25T05:00:18;9.07;;;1.27;;
66523;SDS011;53350;52.210;5.160;2023-04-25T05:02:45;7.18;;;1.33;;
66523;SDS011;53350;52.210;5.160;2023-04-25T05:05:13;6.57;;;1.55;;
66523;SDS011;53350;52.210;5.160;2023-04-25T05:07:39;12.90;;;1.75;;
66523;SDS011;53350;52.210;5.160;2023-04-25T05:10:06;5.05;;;1.17;;
66523;SDS011;53350;52.210;5.160;2023-04-25T05:12:34;8.00;;;1.60;;
66523;SDS011;53350;52.210;5.160;2023-04-25T05:15:00;9.25;;;1.67;;
66523;SDS011;53350;52.210;5.160;2023-04-25T05:17:27;5.95;;;1.17;;
66523;SDS011;53350;52.210;5.160;2023-04-25T05:19:53;10.73;;;2.53;;
66523;SDS011;53350;52.210;5.160;2023-04-25T05:22:21;4.53;;;1.20;;
66523;SDS011;53350;52.210;5.160;2023-04-25T05:24:47;6.90;;;1.50;;
66523;SDS011;53350;52.210;5.160;2023-04-25T05:27:15;8.10;;;1.65;;
66523;SDS011;53350;52.210;5.160;2023-04-25T05:29:42;5.90;;;1.55;;
66523;SDS011;53350;52.210;5.160;2023-04-25T05:32:09;8.20;;;1.52;;
66523;SDS011;53350;52.210;5.160;2023-04-25T05:34:36;8.55;;;1.63;;
66523;SDS011;53350;52.210;5.160;2023-04-25T05:37:02;9.95;;;1.75;;
66523;SDS011;53350;52.210;5.160;2023-04-25T05:39:30;8.80;;;1.40;;
66523;SDS011;53350;52.210;5.160;2023-04-25T05:41:56;9.07;;;1.55;;
66523;SDS011;53350;52.210;5.160;2023-04-25T05:44:23;11.27;;;1.60;;
66523;SDS011;53350;52.210;5.160;2023-04-25T05:46:50;14.32;;;1.70;;
66523;SDS011;53350;52.210;5.160;2023-04-25T05:49:16;12.43;;;1.80;;
66523;SDS011;53350;52.210;5.160;2023-04-25T05:51:42;10.77;;;1.73;;
66523;SDS011;53350;52.210;5.160;2023-04-25T05:54:09;9.30;;;1.75;;
66523;SDS011;53350;52.210;5.160;2023-04-25T05:56:37;11.07;;;2.10;;
66523;SDS011;53350;52.210;5.160;2023-04-25T05:59:03;8.50;;;1.65;;
66523;SDS011;53350;52.210;5.160;2023-04-25T06:01:29;12.02;;;2.05;;
66523;SDS011;53350;52.210;5.160;2023-04-25T06:03:56;10.85;;;2.10;;
66523;SDS011;53350;52.210;5.160;2023-04-25T06:06:22;12.50;;;1.90;;
66523;SDS011;53350;52.210;5.160;2023-04-25T06:08:49;10.23;;;1.77;;
66523;SDS011;53350;52.210;5.160;2023-04-25T06:11:15;8.75;;;1.50;;
66523;SDS011;53350;52.210;5.160;2023-04-25T06:13:43;9.02;;;2.03;;
66523;SDS011;53350;52.210;5.160;2023-04-25T06:16:10;13.32;;;1.80;;
66523;SDS011;53350;52.210;5.160;2023-04-25T06:18:36;10.65;;;1.80;;
66523;SDS011;53350;52.210;5.160;2023-04-25T06:21:03;14.05;;;2.13;;
66523;SDS011;53350;52.210;5.160;2023-04-25T06:23:29;13.98;;;2.03;;
66523;SDS011;53350;52.210;5.160;2023-04-25T06:25:56;14.88;;;2.33;;
66523;SDS011;53350;52.210;5.160;2023-04-25T06:28:22;21.25;;;3.00;;
66523;SDS011;53350;52.210;5.160;2023-04-25T06:30:50;11.65;;;1.70;;
66523;SDS011;53350;52.210;5.160;2023-04-25T06:33:17;10.32;;;2.13;;
66523;SDS011;53350;52.210;5.160;2023-04-25T06:35:43;13.93;;;1.95;;
66523;SDS011;53350;52.210;5.160;2023-04-25T06:38:10;8.70;;;1.75;;
66523;SDS011;53350;52.210;5.160;2023-04-25T06:40:37;11.18;;;1.90;;
66523;SDS011;53350;52.210;5.160;2023-04-25T06:43:03;12.90;;;1.48;;
66523;SDS011;53350;52.210;5.160;2023-04-25T06:45:29;11.60;;;1.85;;
66523;SDS011;53350;52.210;5.160;2023-04-25T06:47:57;13.32;;;1.95;;
66523;SDS011;53350;52.210;5.160;2023-04-25T06:50:24;12.07;;;1.83;;
66523;SDS011;53350;52.210;5.160;2023-04-25T06:52:50;11.25;;;1.58;;
66523;SDS011;53350;52.210;5.160;2023-04-25T06:55:17;15.20;;;2.00;;
66523;SDS011;53350;52.210;5.160;2023-04-25T06:57:43;18.20;;;2.70;;
66523;SDS011;53350;52.210;5.160;2023-04-25T07:00:10;12.23;;;1.38;;
66523;SDS011;53350;52.210;5.160;2023-04-25T07:02:37;10.25;;;1.77;;
66523;SDS011;53350;52.210;5.160;2023-04-25T07:05:05;12.50;;;1.80;;
66523;SDS011;53350;52.210;5.160;2023-04-25T07:07:32;15.23;;;1.88;;
66523;SDS011;53350;52.210;5.160;2023-04-25T07:09:58;8.73;;;1.33;;
66523;SDS011;53350;52.210;5.160;2023-04-25T07:12:25;13.20;;;2.40;;
66523;SDS011;53350;52.210;5.160;2023-04-25T07:14:51;12.55;;;2.60;;
66523;SDS011;53350;52.210;5.160;2023-04-25T07:17:18;10.13;;;1.50;;
66523;SDS011;53350;52.210;5.160;2023-04-25T07:19:44;15.90;;;2.03;;
66523;SDS011;53350;52.210;5.160;2023-04-25T07:22:12;7.50;;;1.35;;
66523;SDS011;53350;52.210;5.160;2023-04-25T07:24:39;14.63;;;2.17;;
66523;SDS011;53350;52.210;5.160;2023-04-25T07:27:05;10.57;;;1.63;;
66523;SDS011;53350;52.210;5.160;2023-04-25T07:29:32;7.72;;;1.45;;
66523;SDS011;53350;52.210;5.160;2023-04-25T07:32:02;9.90;;;1.63;;
66523;SDS011;53350;52.210;5.160;2023-04-25T07:34:28;13.23;;;1.85;;
66523;SDS011;53350;52.210;5.160;2023-04-25T07:36:55;12.00;;;1.63;;
66523;SDS011;53350;52.210;5.160;2023-04-25T07:39:23;10.80;;;1.63;;
66523;SDS011;53350;52.210;5.160;2023-04-25T07:41:49;10.45;;;1.65;;
66523;SDS011;53350;52.210;5.160;2023-04-25T07:44:16;8.07;;;2.05;;
66523;SDS011;53350;52.210;5.160;2023-04-25T07:46:42;10.63;;;1.77;;
66523;SDS011;53350;52.210;5.160;2023-04-25T07:49:08;14.20;;;2.00;;
66523;SDS011;53350;52.210;5.160;2023-04-25T07:51:35;9.48;;;1.92;;
66523;SDS011;53350;52.210;5.160;2023-04-25T07:54:01;12.52;;;1.58;;
66523;SDS011;53350;52.210;5.160;2023-04-25T07:56:29;11.40;;;1.80;;
66523;SDS011;53350;52.210;5.160;2023-04-25T07:58:56;11.13;;;1.58;;
66523;SDS011;53350;52.210;5.160;2023-04-25T08:01:22;8.23;;;1.88;;
66523;SDS011;53350;52.210;5.160;2023-04-25T08:03:49;12.25;;;1.95;;
66523;SDS011;53350;52.210;5.160;2023-04-25T08:06:15;10.52;;;1.63;;
66523;SDS011;53350;52.210;5.160;2023-04-25T08:08:41;5.40;;;1.40;;
66523;SDS011;53350;52.210;5.160;2023-04-25T08:11:08;8.00;;;1.33;;
66523;SDS011;53350;52.210;5.160;2023-04-25T08:13:36;9.70;;;1.48;;
66523;SDS011;53350;52.210;5.160;2023-04-25T08:16:03;7.82;;;1.70;;
66523;SDS011;53350;52.210;5.160;2023-04-25T08:18:30;10.55;;;2.03;;
66523;SDS011;53350;52.210;5.160;2023-04-25T08:20:56;10.32;;;1.65;;
66523;SDS011;53350;52.210;5.160;2023-04-25T08:23:23;15.95;;;1.90;;
66523;SDS011;53350;52.210;5.160;2023-04-25T08:25:49;11.88;;;1.35;;
66523;SDS011;53350;52.210;5.160;2023-04-25T08:28:16;12.15;;;2.22;;
66523;SDS011;53350;52.210;5.160;2023-04-25T08:30:43;10.93;;;1.58;;
66523;SDS011;53350;52.210;5.160;2023-04-25T08:33:10;10.85;;;2.67;;
66523;SDS011;53350;52.210;5.160;2023-04-25T08:35:36;11.68;;;1.73;;
66523;SDS011;53350;52.210;5.160;2023-04-25T08:38:03;10.05;;;1.75;;
66523;SDS011;53350;52.210;5.160;2023-04-25T08:40:29;11.05;;;1.80;;
66523;SDS011;53350;52.210;5.160;2023-04-25T08:43:01;8.25;;;1.65;;
66523;SDS011;53350;52.210;5.160;2023-04-25T08:45:31;11.98;;;1.80;;
66523;SDS011;53350;52.210;5.160;2023-04-25T08:48:00;5.87;;;0.97;;
66523;SDS011;53350;52.210;5.160;2023-04-25T08:50:28;6.05;;;1.23;;
66523;SDS011;53350;52.210;5.160;2023-04-25T08:52:55;5.05;;;1.08;;
66523;SDS011;53350;52.210;5.160;2023-04-25T08:55:27;6.30;;;1.25;;
66523;SDS011;53350;52.210;5.160;2023-04-25T08:57:54;6.57;;;1.13;;
66523;SDS011;53350;52.210;5.160;2023-04-25T09:00:22;6.80;;;1.35;;
66523;SDS011;53350;52.210;5.160;2023-04-25T09:02:48;10.32;;;1.48;;
66523;SDS011;53350;52.210;5.160;2023-04-25T09:05:17;4.55;;;1.13;;
66523;SDS011;53350;52.210;5.160;2023-04-25T09:07:44;10.27;;;1.58;;
66523;SDS011;53350;52.210;5.160;2023-04-25T09:10:11;7.60;;;1.10;;
66523;SDS011;53350;52.210;5.160;2023-04-25T09:12:37;8.77;;;1.30;;
66523;SDS011;53350;52.210;5.160;2023-04-25T09:15:04;6.47;;;1.58;;
66523;SDS011;53350;52.210;5.160;2023-04-25T09:17:32;9.00;;;1.17;;
66523;SDS011;53350;52.210;5.160;2023-04-25T09:20:08;10.38;;;1.42;;
66523;SDS011;53350;52.210;5.160;2023-04-25T09:22:37;8.38;;;1.50;;
66523;SDS011;53350;52.210;5.160;2023-04-25T09:25:07;9.40;;;1.75;;
66523;SDS011;53350;52.210;5.160;2023-04-25T09:27:35;9.48;;;1.55;;
66523;SDS011;53350;52.210;5.160;2023-04-25T09:30:02;7.13;;;1.20;;
66523;SDS011;53350;52.210;5.160;2023-04-25T09:32:29;7.35;;;1.15;;
66523;SDS011;53350;52.210;5.160;2023-04-25T09:34:56;11.55;;;1.48;;
66523;SDS011;53350;52.210;5.160;2023-04-25T09:37:24;13.88;;;1.77;;
66523;SDS011;53350;52.210;5.160;2023-04-25T09:39:54;4.55;;;1.17;;
66523;SDS011;53350;52.210;5.160;2023-04-25T09:42:22;10.73;;;1.52;;
66523;SDS011;53350;52.210;5.160;2023-04-25T09:44:51;9.57;;;1.50;;
66523;SDS011;53350;52.210;5.160;2023-04-25T09:47:18;10.63;;;1.15;;
66523;SDS011;53350;52.210;5.160;2023-04-25T09:49:46;8.32;;;1.17;;
66523;SDS011;53350;52.210;5.160;2023-04-25T09:52:13;6.07;;;1.05;;
66523;SDS011;53350;52.210;5.160;2023-04-25T09:54:42;7.85;;;1.40;;
66523;SDS011;53350;52.210;5.160;2023-04-25T09:57:11;8.82;;;1.10;;
66523;SDS011;53350;52.210;5.160;2023-04-25T09:59:39;5.68;;;0.90;;
66523;SDS011;53350;52.210;5.160;2023-04-25T10:02:10;7.85;;;1.35;;
66523;SDS011;53350;52.210;5.160;2023-04-25T10:04:38;5.07;;;1.20;;
66523;SDS011;53350;52.210;5.160;2023-04-25T10:07:05;6.05;;;1.00;;
66523;SDS011;53350;52.210;5.160;2023-04-25T10:09:33;12.88;;;1.65;;
66523;SDS011;53350;52.210;5.160;2023-04-25T10:12:02;9.43;;;1.30;;
66523;SDS011;53350;52.210;5.160;2023-04-25T10:14:30;6.90;;;1.30;;
66523;SDS011;53350;52.210;5.160;2023-04-25T10:16:57;3.65;;;1.13;;
66523;SDS011;53350;52.210;5.160;2023-04-25T10:19:24;6.18;;;1.13;;
66523;SDS011;53350;52.210;5.160;2023-04-25T10:21:51;8.68;;;1.25;;
66523;SDS011;53350;52.210;5.160;2023-04-25T10:24:20;5.28;;;1.17;;
66523;SDS011;53350;52.210;5.160;2023-04-25T10:26:46;9.70;;;1.27;;
66523;SDS011;53350;52.210;5.160;2023-04-25T10:29:15;6.75;;;1.98;;
66523;SDS011;53350;52.210;5.160;2023-04-25T10:31:50;5.18;;;1.00;;
66523;SDS011;53350;52.210;5.160;2023-04-25T10:34:17;7.50;;;1.40;;
66523;SDS011;53350;52.210;5.160;2023-04-25T10:36:49;7.80;;;1.35;;
66523;SDS011;53350;52.210;5.160;2023-04-25T10:39:21;8.68;;;0.95;;
66523;SDS011;53350;52.210;5.160;2023-04-25T10:41:52;7.38;;;1.20;;
66523;SDS011;53350;52.210;5.160;2023-04-25T10:44:21;9.50;;;1.10;;
66523;SDS011;53350;52.210;5.160;2023-04-25T10:46:49;4.75;;;0.95;;
66523;SDS011;53350;52.210;5.160;2023-04-25T10:49:28;6.05;;;1.10;;
66523;SDS011;53350;52.210;5.160;2023-04-25T10:52:16;2.95;;;0.60;;
66523;SDS011;53350;52.210;5.160;2023-04-25T10:54:46;5.18;;;1.30;;
66523;SDS011;53350;52.210;5.160;2023-04-25T10:57:26;6.45;;;1.25;;
66523;SDS011;53350;52.210;5.160;2023-04-25T10:59:58;8.48;;;0.98;;
66523;SDS011;53350;52.210;5.160;2023-04-25T11:02:27;4.05;;;0.90;;
66523;SDS011;53350;52.210;5.160;2023-04-25T11:07:23;7.93;;;0.90;;
66523;SDS011;53350;52.210;5.160;2023-04-25T11:10:01;6.10;;;1.00;;
66523;SDS011;53350;52.210;5.160;2023-04-25T11:12:29;3.85;;;0.88;;
66523;SDS011;53350;52.210;5.160;2023-04-25T11:15:00;5.68;;;1.20;;
66523;SDS011;53350;52.210;5.160;2023-04-25T11:17:29;3.08;;;0.88;;
66523;SDS011;53350;52.210;5.160;2023-04-25T11:19:56;9.75;;;1.40;;
66523;SDS011;53350;52.210;5.160;2023-04-25T11:22:23;6.18;;;1.08;;
66523;SDS011;53350;52.210;5.160;2023-04-25T11:24:49;8.93;;;1.33;;
66523;SDS011;53350;52.210;5.160;2023-04-25T11:27:16;9.18;;;1.35;;
66523;SDS011;53350;52.210;5.160;2023-04-25T11:29:43;8.57;;;1.35;;
66523;SDS011;53350;52.210;5.160;2023-04-25T11:32:09;4.53;;;1.00;;
66523;SDS011;53350;52.210;5.160;2023-04-25T11:34:37;9.40;;;1.10;;
66523;SDS011;53350;52.210;5.160;2023-04-25T11:37:03;5.28;;;1.35;;
66523;SDS011;53350;52.210;5.160;2023-04-25T11:39:31;7.47;;;1.40;;
66523;SDS011;53350;52.210;5.160;2023-04-25T11:41:57;6.47;;;1.20;;
66523;SDS011;53350;52.210;5.160;2023-04-25T11:44:24;6.32;;;1.20;;
66523;SDS011;53350;52.210;5.160;2023-04-25T11:46:51;8.05;;;1.02;;
66523;SDS011;53350;52.210;5.160;2023-04-25T11:49:17;10.48;;;1.60;;
66523;SDS011;53350;52.210;5.160;2023-04-25T11:51:46;3.30;;;0.85;;
66523;SDS011;53350;52.210;5.160;2023-04-25T11:54:14;7.03;;;1.20;;
66523;SDS011;53350;52.210;5.160;2023-04-25T11:56:41;6.32;;;0.98;;
66523;SDS011;53350;52.210;5.160;2023-04-25T11:59:08;10.55;;;1.95;;
66523;SDS011;53350;52.210;5.160;2023-04-25T12:01:35;5.85;;;1.17;;
66523;SDS011;53350;52.210;5.160;2023-04-25T12:04:10;7.72;;;1.20;;
66523;SDS011;53350;52.210;5.160;2023-04-25T12:06:38;8.10;;;1.42;;
66523;SDS011;53350;52.210;5.160;2023-04-25T12:09:07;6.57;;;0.98;;
66523;SDS011;53350;52.210;5.160;2023-04-25T12:11:40;7.80;;;1.35;;
66523;SDS011;53350;52.210;5.160;2023-04-25T12:14:06;4.05;;;1.00;;
66523;SDS011;53350;52.210;5.160;2023-04-25T12:16:39;8.65;;;1.50;;
66523;SDS011;53350;52.210;5.160;2023-04-25T12:19:07;9.48;;;1.60;;
66523;SDS011;53350;52.210;5.160;2023-04-25T12:21:34;6.50;;;1.10;;
66523;SDS011;53350;52.210;5.160;2023-04-25T12:24:11;6.32;;;1.10;;
66523;SDS011;53350;52.210;5.160;2023-04-25T12:26:46;5.05;;;1.30;;
66523;SDS011;53350;52.210;5.160;2023-04-25T12:29:17;6.68;;;0.90;;
66523;SDS011;53350;52.210;5.160;2023-04-25T12:31:45;2.72;;;0.82;;
66523;SDS011;53350;52.210;5.160;2023-04-25T12:34:11;6.30;;;1.13;;
66523;SDS011;53350;52.210;5.160;2023-04-25T12:36:38;6.07;;;1.40;;
66523;SDS011;53350;52.210;5.160;2023-04-25T12:39:04;5.97;;;1.08;;
66523;SDS011;53350;52.210;5.160;2023-04-25T12:41:33;7.47;;;1.65;;
66523;SDS011;53350;52.210;5.160;2023-04-25T12:44:00;7.63;;;1.35;;
66523;SDS011;53350;52.210;5.160;2023-04-25T12:46:26;5.15;;;1.02;;
66523;SDS011;53350;52.210;5.160;2023-04-25T12:48:52;4.10;;;1.10;;
66523;SDS011;53350;52.210;5.160;2023-04-25T12:51:20;7.75;;;1.20;;
66523;SDS011;53350;52.210;5.160;2023-04-25T12:53:49;5.47;;;1.20;;
66523;SDS011;53350;52.210;5.160;2023-04-25T12:56:16;6.85;;;1.17;;
66523;SDS011;53350;52.210;5.160;2023-04-25T12:58:44;2.55;;;0.70;;
66523;SDS011;53350;52.210;5.160;2023-04-25T13:01:11;3.40;;;0.90;;
66523;SDS011;53350;52.210;5.160;2023-04-25T13:03:38;5.00;;;1.23;;
66523;SDS011;53350;52.210;5.160;2023-04-25T13:06:05;7.10;;;1.20;;
66523;SDS011;53350;52.210;5.160;2023-04-25T13:08:32;5.10;;;1.00;;
66523;SDS011;53350;52.210;5.160;2023-04-25T13:10:59;4.90;;;1.07;;
66523;SDS011;53350;52.210;5.160;2023-04-25T13:13:26;5.63;;;1.00;;
66523;SDS011;53350;52.210;5.160;2023-04-25T13:15:54;7.60;;;1.10;;
66523;SDS011;53350;52.210;5.160;2023-04-25T13:20:51;6.97;;;1.35;;
66523;SDS011;53350;52.210;5.160;2023-04-25T13:23:17;6.07;;;1.20;;
66523;SDS011;53350;52.210;5.160;2023-04-25T13:25:44;12.57;;;1.33;;
66523;SDS011;53350;52.210;5.160;2023-04-25T13:28:10;6.47;;;1.63;;
66523;SDS011;53350;52.210;5.160;2023-04-25T13:30:37;6.95;;;1.13;;
66523;SDS011;53350;52.210;5.160;2023-04-25T13:33:05;5.35;;;1.13;;
66523;SDS011;53350;52.210;5.160;2023-04-25T13:35:31;7.97;;;1.52;;
66523;SDS011;53350;52.210;5.160;2023-04-25T13:37:59;9.05;;;1.52;;
66523;SDS011;53350;52.210;5.160;2023-04-25T13:40:25;5.38;;;1.20;;
66523;SDS011;53350;52.210;5.160;2023-04-25T13:42:52;6.35;;;1.58;;
66523;SDS011;53350;52.210;5.160;2023-04-25T13:45:19;8.40;;;1.83;;
66523;SDS011;53350;52.210;5.160;2023-04-25T13:47:45;4.78;;;1.10;;
66523;SDS011;53350;52.210;5.160;2023-04-25T13:50:13;9.60;;;1.55;;
66523;SDS011;53350;52.210;5.160;2023-04-25T13:52:41;7.75;;;1.20;;
66523;SDS011;53350;52.210;5.160;2023-04-25T13:55:08;4.75;;;1.05;;
66523;SDS011;53350;52.210;5.160;2023-04-25T13:57:35;5.50;;;1.20;;
66523;SDS011;53350;52.210;5.160;2023-04-25T14:00:03;8.07;;;1.48;;
66523;SDS011;53350;52.210;5.160;2023-04-25T14:02:33;6.68;;;1.30;;
66523;SDS011;53350;52.210;5.160;2023-04-25T14:05:00;10.25;;;1.30;;
66523;SDS011;53350;52.210;5.160;2023-04-25T14:07:28;7.35;;;1.25;;
66523;SDS011;53350;52.210;5.160;2023-04-25T14:12:22;5.32;;;1.48;;
66523;SDS011;53350;52.210;5.160;2023-04-25T14:14:48;7.97;;;1.20;;
66523;SDS011;53350;52.210;5.160;2023-04-25T14:17:15;6.78;;;1.23;;
66523;SDS011;53350;52.210;5.160;2023-04-25T14:19:41;12.90;;;1.38;;
66523;SDS011;53350;52.210;5.160;2023-04-25T14:22:10;9.70;;;1.17;;
66523;SDS011;53350;52.210;5.160;2023-04-25T14:24:38;5.30;;;1.42;;
66523;SDS011;53350;52.210;5.160;2023-04-25T14:27:05;3.60;;;0.90;;
66523;SDS011;53350;52.210;5.160;2023-04-25T14:29:31;5.22;;;1.10;;
66523;SDS011;53350;52.210;5.160;2023-04-25T14:31:58;5.60;;;1.00;;
66523;SDS011;53350;52.210;5.160;2023-04-25T14:34:25;8.70;;;1.13;;
66523;SDS011;53350;52.210;5.160;2023-04-25T14:36:51;6.72;;;1.30;;
66523;SDS011;53350;52.210;5.160;2023-04-25T14:39:18;3.08;;;1.00;;
66523;SDS011;53350;52.210;5.160;2023-04-25T14:41:46;4.47;;;1.10;;
66523;SDS011;53350;52.210;5.160;2023-04-25T14:44:12;9.00;;;1.33;;
66523;SDS011;53350;52.210;5.160;2023-04-25T14:46:40;6.82;;;1.45;;
66523;SDS011;53350;52.210;5.160;2023-04-25T14:49:06;7.13;;;1.00;;
66523;SDS011;53350;52.210;5.160;2023-04-25T14:51:33;5.03;;;1.20;;